Keystone Heights, Florida
Current Conditions -  °F | °C
As of 5:53 PM on Tuesday 21 Oct 2014 (Local Time) from KGNV Reporting Station
Few Clouds Few Clouds  
Wind Chill: 81°   Ceiling: Unl
Heat Index: 82°   Visibility: 10mi
Dew Point: 62°   Wind: 3mph
Humidity: 52%   Direction: 330°NNW
Pressure: 29.91"   Gusts: NA
Location:  29.79°N, 82.03°W
Report Text: KGNV 212153Z 33003KT 10SM FEW043 27/17 A2991 RMK AO2 SLP127 T02720167
Loading
Personal Weather Stations






























Interactive Weather Map
Tropical Storm Tracking
New forecast layout! Learn more

10-Day Weather Forecast

Advertisements
Track Severe Weather on mobile